createdAt,value
2018-05-13T00:00:09.875Z,94420.55
2018-05-13T00:02:38.133Z,94427.23
2018-05-13T00:05:06.391Z,94414.06
2018-05-13T00:07:34.668Z,94420.15
2018-05-13T00:10:03.675Z,94416.70
2018-05-13T00:12:31.934Z,94425.77
2018-05-13T00:15:00.195Z,94419.94
2018-05-13T00:17:28.462Z,94419.84
2018-05-13T00:19:56.732Z,94420.20
2018-05-13T00:22:24.986Z,94417.73
2018-05-13T00:24:53.256Z,94412.01
2018-05-13T00:27:22.271Z,94412.05
2018-05-13T00:29:50.540Z,94407.31
2018-05-13T00:32:18.793Z,94410.45
2018-05-13T00:34:47.051Z,94404.19
2018-05-13T00:37:15.302Z,94403.18
2018-05-13T00:39:43.806Z,94402.94
2018-05-13T00:42:12.062Z,94396.14
2018-05-13T00:44:40.314Z,94389.35
2018-05-13T00:47:09.356Z,94392.75
2018-05-13T00:49:37.614Z,94390.05
2018-05-13T00:52:05.854Z,94386.28
2018-05-13T00:54:52.778Z,94379.97
2018-05-13T00:57:21.790Z,94383.83
2018-05-13T00:59:50.038Z,94373.56
2018-05-13T01:02:19.063Z,94374.75
2018-05-13T01:04:47.314Z,94371.06
2018-05-13T01:07:15.566Z,94378.55
2018-05-13T01:09:43.820Z,94371.31
2018-05-13T01:12:12.075Z,94368.32
2018-05-13T01:14:40.344Z,94370.69
2018-05-13T01:17:09.355Z,94362.05
2018-05-13T01:19:38.390Z,94358.84
2018-05-13T01:22:06.645Z,94355.78
2018-05-13T01:24:34.906Z,94358.41
2018-05-13T01:27:03.912Z,94352.42
2018-05-13T01:29:32.931Z,94360.36
2018-05-13T01:32:01.698Z,94366.58
2018-05-13T01:34:30.719Z,94357.91
2018-05-13T01:36:58.958Z,94363.35
2018-05-13T01:39:27.979Z,94360.64
2018-05-13T01:41:56.228Z,94358.63
2018-05-13T01:44:25.065Z,94352.03
2018-05-13T01:46:53.311Z,94351.88
2018-05-13T01:49:22.351Z,94345.64
2018-05-13T01:51:50.601Z,94340.80
2018-05-13T01:54:19.625Z,94340.36
2018-05-13T01:56:47.874Z,94339.28
2018-05-13T01:59:16.893Z,94340.42
2018-05-13T02:01:45.137Z,94338.55
2018-05-13T02:04:13.392Z,94334.95
2018-05-13T02:06:41.775Z,94335.63
2018-05-13T02:09:10.038Z,94336.74
2018-05-13T02:11:38.277Z,94329.04
2018-05-13T02:14:07.303Z,94334.43
2018-05-13T02:16:36.227Z,94328.20
2018-05-13T02:19:04.466Z,94326.77
2018-05-13T02:21:32.719Z,94322.23
2018-05-13T02:24:00.975Z,94326.40
2018-05-13T02:26:29.224Z,94325.20
2018-05-13T02:28:57.478Z,94323.03
2018-05-13T02:31:26.499Z,94322.05
2018-05-13T02:33:54.747Z,94334.47
2018-05-13T02:36:23.769Z,94328.55
2018-05-13T02:38:52.016Z,94326.70
2018-05-13T02:41:20.277Z,94335.14
2018-05-13T02:43:48.504Z,94325.49
2018-05-13T02:46:16.766Z,94331.84
2018-05-13T02:48:45.766Z,94335.77
2018-05-13T02:51:14.791Z,94338.97
2018-05-13T02:53:43.041Z,94344.32
2018-05-13T02:56:12.071Z,94338.19
2018-05-13T02:58:41.327Z,94337.63
2018-05-13T03:01:09.583Z,94336.89
2018-05-13T03:03:37.827Z,94343.81
2018-05-13T03:06:06.067Z,94343.43
2018-05-13T03:08:34.324Z,94345.86
2018-05-13T03:11:02.595Z,94350.52
2018-05-13T03:13:30.849Z,94348.30
2018-05-13T03:15:59.086Z,94345.53
2018-05-13T03:18:27.343Z,94341.17
2018-05-13T03:20:55.596Z,94343.69
2018-05-13T03:23:23.856Z,94339.63
2018-05-13T03:25:52.868Z,94343.19
2018-05-13T03:28:21.121Z,94349.10
2018-05-13T03:30:50.142Z,94368.41
2018-05-13T03:33:18.400Z,94374.84
2018-05-13T03:35:47.421Z,94376.96
2018-05-13T03:38:15.691Z,94380.42
2018-05-13T03:40:45.956Z,94386.20
2018-05-13T03:43:14.206Z,94397.90
2018-05-13T03:45:42.461Z,94398.20
2018-05-13T03:48:11.470Z,94390.65
2018-05-13T03:50:40.499Z,94398.69
2018-05-13T03:53:08.740Z,94391.03
2018-05-13T03:55:37.770Z,94392.53
2018-05-13T03:58:07.055Z,94392.63
2018-05-13T04:00:36.075Z,94399.44
2018-05-13T04:03:04.332Z,94400.36
2018-05-13T04:05:33.363Z,94404.52
2018-05-13T04:11:44.206Z,94412.01
2018-05-13T04:14:30.273Z,94401.38
2018-05-13T04:16:58.553Z,94410.78
2018-05-13T04:19:26.803Z,94406.75
2018-05-13T04:21:55.111Z,94403.61
2018-05-13T04:24:23.366Z,94411.58
2018-05-13T04:26:51.622Z,94410.80
2018-05-13T04:29:19.867Z,94407.97
2018-05-13T04:31:48.163Z,94416.20
2018-05-13T04:34:16.408Z,94415.48
2018-05-13T04:36:44.672Z,94420.27
2018-05-13T04:39:12.914Z,94425.76
2018-05-13T04:41:41.174Z,94420.63
2018-05-13T04:44:09.474Z,94417.01
2018-05-13T04:46:38.103Z,94415.38
2018-05-13T04:49:06.353Z,94415.02
2018-05-13T04:51:34.607Z,94415.83
2018-05-13T04:54:02.880Z,94415.38
2018-05-13T04:56:31.285Z,94411.20
2018-05-13T04:58:59.539Z,94411.95
2018-05-13T05:01:27.793Z,94408.76
2018-05-13T05:03:56.062Z,94401.89
2018-05-13T05:06:24.335Z,94397.36
2018-05-13T05:08:52.668Z,94397.20
2018-05-13T05:11:20.846Z,94394.94
2018-05-13T05:13:49.121Z,94388.84
2018-05-13T05:16:17.367Z,94386.16
2018-05-13T05:18:45.632Z,94390.84
2018-05-13T05:21:13.887Z,94385.52
2018-05-13T05:23:42.152Z,94381.58
2018-05-13T05:26:10.403Z,94382.66
2018-05-13T05:28:39.431Z,94386.45
2018-05-13T05:31:07.687Z,94373.30
2018-05-13T05:33:36.728Z,94374.64
2018-05-13T05:36:04.983Z,94368.09
2018-05-13T05:38:33.295Z,94372.00
2018-05-13T05:41:01.555Z,94370.39
2018-05-13T05:43:29.910Z,94373.34
2018-05-13T05:46:00.175Z,94373.20
2018-05-13T05:48:28.456Z,94365.56
2018-05-13T05:50:56.684Z,94368.66
2018-05-13T05:53:25.723Z,94360.47
2018-05-13T05:55:53.986Z,94363.81
2018-05-13T05:58:22.252Z,94363.75
2018-05-13T06:00:51.272Z,94363.75
2018-05-13T06:03:19.545Z,94359.71
2018-05-13T06:05:48.550Z,94361.95
2018-05-13T06:08:16.807Z,94356.72
2018-05-13T06:10:45.838Z,94354.14
2018-05-13T06:13:14.106Z,94353.96
2018-05-13T06:15:42.350Z,94356.27
2018-05-13T06:18:11.163Z,94353.11
2018-05-13T06:20:40.183Z,94352.23
2018-05-13T06:23:08.447Z,94352.30
2018-05-13T06:25:36.699Z,94350.06
2018-05-13T06:28:05.732Z,94349.76
2018-05-13T06:30:34.007Z,94347.40
2018-05-13T06:33:02.283Z,94350.38
2018-05-13T06:35:31.317Z,94354.39
2018-05-13T06:37:59.563Z,94351.44
2018-05-13T06:40:27.832Z,94348.55
2018-05-13T06:42:56.892Z,94354.72
2018-05-13T06:45:25.155Z,94350.31
2018-05-13T06:47:53.410Z,94354.88
2018-05-13T06:50:21.683Z,94351.44
2018-05-13T06:52:49.936Z,94357.77
2018-05-13T06:55:18.220Z,94352.25
2018-05-13T06:57:46.528Z,94354.02
2018-05-13T07:00:14.799Z,94356.48
2018-05-13T07:02:43.871Z,94355.15
2018-05-13T07:05:12.077Z,94350.07
2018-05-13T07:07:41.102Z,94351.09
2018-05-13T07:10:09.429Z,94347.16
2018-05-13T07:12:37.680Z,94344.50
2018-05-13T07:15:06.059Z,94348.69
2018-05-13T07:17:34.324Z,94351.11
2018-05-13T07:20:02.603Z,94336.44
2018-05-13T07:22:30.868Z,94336.47
2018-05-13T07:24:59.891Z,94344.06
2018-05-13T07:27:29.703Z,94339.41
2018-05-13T07:29:57.967Z,94333.95
2018-05-13T07:32:26.214Z,94341.02
2018-05-13T07:34:54.483Z,94340.13
2018-05-13T07:37:22.815Z,94337.72
2018-05-13T07:39:51.078Z,94340.82
2018-05-13T07:42:20.105Z,94334.41
2018-05-13T07:44:48.360Z,94329.82
2018-05-13T07:47:17.383Z,94325.05
2018-05-13T07:49:45.941Z,94333.89
2018-05-13T07:52:14.739Z,94326.11
2018-05-13T07:54:42.995Z,94321.84
2018-05-13T07:57:11.266Z,94324.81
2018-05-13T07:59:39.531Z,94325.31
2018-05-13T08:02:07.791Z,94319.16
2018-05-13T08:04:36.060Z,94319.47
2018-05-13T08:07:04.307Z,94315.08
2018-05-13T08:09:34.583Z,94316.79
2018-05-13T08:12:02.878Z,94314.86
2018-05-13T08:14:31.144Z,94314.55
2018-05-13T08:16:59.418Z,94309.59
2018-05-13T08:19:28.218Z,94307.63
2018-05-13T08:21:56.478Z,94305.24
2018-05-13T08:24:24.728Z,94300.37
2018-05-13T08:26:53.766Z,94296.12
2018-05-13T08:29:22.023Z,94299.31
2018-05-13T08:31:50.295Z,94291.80
2018-05-13T08:34:19.298Z,94290.97
2018-05-13T08:36:47.571Z,94292.25
2018-05-13T08:39:16.588Z,94287.03
2018-05-13T08:41:44.847Z,94286.02
2018-05-13T08:44:13.869Z,94283.72
2018-05-13T08:46:42.134Z,94280.41
2018-05-13T08:49:11.162Z,94279.88
2018-05-13T08:51:39.647Z,94273.80
2018-05-13T08:54:07.912Z,94269.36
2018-05-13T08:56:36.172Z,94267.42
2018-05-13T08:59:05.189Z,94269.36
2018-05-13T09:01:33.456Z,94266.78
2018-05-13T09:04:02.483Z,94261.48
2018-05-13T09:06:30.759Z,94264.02
2018-05-13T09:08:59.021Z,94263.96
2018-05-13T09:11:27.283Z,94257.33
2018-05-13T09:13:56.300Z,94254.66
2018-05-13T09:16:24.564Z,94253.61
2018-05-13T09:18:53.583Z,94254.36
2018-05-13T09:21:21.851Z,94253.53
2018-05-13T09:23:50.868Z,94248.05
2018-05-13T09:26:19.127Z,94249.33
2018-05-13T09:28:48.201Z,94245.58
2018-05-13T09:31:16.464Z,94242.23
2018-05-13T09:33:44.708Z,94241.81
2018-05-13T09:36:12.971Z,94240.95
2018-05-13T09:38:41.991Z,94239.44
2018-05-13T09:41:10.254Z,94233.08
2018-05-13T09:43:38.502Z,94233.11
2018-05-13T09:46:06.777Z,94232.36
2018-05-13T09:48:35.024Z,94228.83
2018-05-13T09:51:03.307Z,94237.02
2018-05-13T09:53:31.660Z,94232.64
2018-05-13T09:55:59.943Z,94223.87
2018-05-13T09:58:28.193Z,94221.33
2018-05-13T10:00:57.228Z,94224.77
2018-05-13T10:03:25.479Z,94222.77
2018-05-13T10:05:54.594Z,94222.98
2018-05-13T10:08:22.851Z,94223.42
2018-05-13T10:10:51.106Z,94218.17
2018-05-13T10:13:19.374Z,94210.69
2018-05-13T10:15:47.639Z,94217.78
2018-05-13T10:18:16.203Z,94208.39
2018-05-13T10:20:44.457Z,94212.47
2018-05-13T10:23:12.711Z,94210.63
2018-05-13T10:25:42.191Z,94201.58
2018-05-13T10:28:10.461Z,94206.97
2018-05-13T10:30:38.707Z,94201.08
2018-05-13T10:33:06.967Z,94203.36
2018-05-13T10:35:35.224Z,94197.20
2018-05-13T10:38:03.532Z,94194.86
2018-05-13T10:40:31.787Z,94194.34
2018-05-13T10:43:00.049Z,94188.38
2018-05-13T10:45:28.296Z,94186.25
2018-05-13T10:47:57.339Z,94179.39
2018-05-13T10:50:25.587Z,94181.26
2018-05-13T10:52:53.875Z,94170.53
2018-05-13T10:55:22.152Z,94170.13
2018-05-13T10:57:50.444Z,94167.38
2018-05-13T11:00:19.451Z,94165.27
2018-05-13T11:02:47.710Z,94153.05
2018-05-13T11:05:16.735Z,94155.30
2018-05-13T11:07:45.019Z,94155.27
2018-05-13T11:10:13.278Z,94148.30
2018-05-13T11:12:41.668Z,94147.83
2018-05-13T11:15:09.923Z,94148.94
2018-05-13T11:17:40.198Z,94141.49
2018-05-13T11:20:08.455Z,94131.78
2018-05-13T11:22:36.719Z,94129.41
2018-05-13T11:25:04.966Z,94118.84
2018-05-13T11:27:33.222Z,94112.89
2018-05-13T11:30:01.484Z,94113.53
2018-05-13T11:32:29.754Z,94109.86
2018-05-13T11:34:57.999Z,94100.14
2018-05-13T11:37:26.308Z,94101.00
2018-05-13T11:39:55.343Z,94098.72
2018-05-13T11:42:23.598Z,94095.49
2018-05-13T11:44:51.858Z,94084.69
2018-05-13T11:47:20.894Z,94082.46
2018-05-13T11:49:49.151Z,94081.56
2018-05-13T11:52:17.420Z,94073.03
2018-05-13T11:54:45.686Z,94059.98
2018-05-13T11:57:14.713Z,94064.02
2018-05-13T11:59:42.971Z,94053.97
2018-05-13T12:02:12.084Z,94053.89
2018-05-13T12:04:40.259Z,94056.36
2018-05-13T12:07:08.523Z,94048.97
2018-05-13T12:09:37.571Z,94041.23
2018-05-13T12:12:05.818Z,94039.59
2018-05-13T12:14:34.091Z,94036.39
2018-05-13T12:17:03.163Z,94027.98
2018-05-13T12:19:31.429Z,94038.13
2018-05-13T12:21:59.683Z,94029.55
2018-05-13T12:24:27.996Z,94022.95
2018-05-13T12:26:56.267Z,94021.34
2018-05-13T12:29:24.537Z,94011.30
2018-05-13T12:31:52.794Z,94010.64
2018-05-13T12:34:21.074Z,94004.66
2018-05-13T12:36:49.331Z,93999.19
2018-05-13T12:39:18.364Z,93999.97
2018-05-13T12:41:46.617Z,94000.13
2018-05-13T12:44:14.891Z,93995.80
2018-05-13T12:46:43.907Z,94000.02
2018-05-13T12:49:12.174Z,93991.02
2018-05-13T12:51:41.192Z,93986.71
2018-05-13T12:54:09.442Z,93981.31
2018-05-13T12:56:38.467Z,93990.41
2018-05-13T12:59:06.727Z,93979.53
2018-05-13T13:01:35.973Z,93975.98
2018-05-13T13:04:04.255Z,93970.20
2018-05-13T13:06:32.524Z,93971.52
2018-05-13T13:09:00.783Z,93977.16
2018-05-13T13:11:29.031Z,93976.58
2018-05-13T13:13:57.295Z,93972.48
2018-05-13T13:16:26.127Z,93961.81
2018-05-13T13:18:54.468Z,93954.20
2018-05-13T13:21:23.422Z,93949.58
2018-05-13T13:23:51.688Z,93948.70
2018-05-13T13:26:20.706Z,93949.08
2018-05-13T13:28:48.974Z,93951.55
2018-05-13T13:31:17.226Z,93949.86
2018-05-13T13:33:45.487Z,93955.37
2018-05-13T13:36:13.764Z,93956.38
2018-05-13T13:38:42.114Z,93950.90
2018-05-13T13:41:10.382Z,93960.69
2018-05-13T13:43:38.641Z,93958.93
2018-05-13T13:46:07.672Z,93956.55
2018-05-13T13:48:35.929Z,93959.13
2018-05-13T13:51:04.201Z,93960.31
2018-05-13T13:53:33.315Z,93956.95
2018-05-13T13:56:01.483Z,93949.98
2018-05-13T13:58:29.781Z,93953.97
2018-05-13T14:00:58.047Z,93953.76
2018-05-13T14:03:26.305Z,93955.21
2018-05-13T14:05:54.567Z,93960.80
2018-05-13T14:08:22.839Z,93951.46
2018-05-13T14:10:51.108Z,93948.63
2018-05-13T14:13:19.362Z,93950.01
2018-05-13T14:15:47.730Z,93941.17
2018-05-13T14:18:16.751Z,93951.69
2018-05-13T14:20:45.013Z,93958.53
2018-05-13T14:23:13.286Z,93973.22
2018-05-13T14:25:42.391Z,93996.20
2018-05-13T14:28:11.411Z,94006.54
2018-05-13T14:30:39.667Z,94011.77
2018-05-13T14:33:08.771Z,94021.33
2018-05-13T14:35:37.039Z,94006.35
2018-05-13T14:38:06.115Z,94001.35
2018-05-13T14:40:34.327Z,93982.97
2018-05-13T14:43:03.137Z,93981.52
2018-05-13T14:45:31.512Z,93986.00
2018-05-13T14:47:59.655Z,93984.41
2018-05-13T14:50:27.949Z,93987.00
2018-05-13T14:52:56.199Z,93986.22
2018-05-13T14:55:24.454Z,93988.34
2018-05-13T14:57:52.715Z,93994.63
2018-05-13T15:00:20.999Z,93995.28
2018-05-13T15:02:49.251Z,94018.86
2018-05-13T15:05:18.292Z,94008.80
2018-05-13T15:07:46.539Z,94004.81
2018-05-13T15:10:15.583Z,94010.45
2018-05-13T15:12:43.843Z,94017.95
2018-05-13T15:15:12.099Z,94002.16
2018-05-13T15:17:41.116Z,93992.78
2018-05-13T15:20:09.380Z,93981.35
2018-05-13T15:22:37.693Z,93972.18
2018-05-13T15:25:06.655Z,93964.91
2018-05-13T15:27:35.684Z,93954.83
2018-05-13T15:30:03.971Z,93951.50
2018-05-13T15:32:32.223Z,93943.25
2018-05-13T15:35:02.170Z,93940.88
2018-05-13T15:37:30.445Z,93931.33
2018-05-13T15:39:58.695Z,93929.73
2018-05-13T15:42:27.809Z,93931.47
2018-05-13T15:44:56.019Z,93932.91
2018-05-13T15:47:24.355Z,93924.49
2018-05-13T15:49:53.378Z,93921.25
2018-05-13T15:52:21.640Z,93914.27
2018-05-13T15:54:49.891Z,93907.33
2018-05-13T15:57:18.166Z,93902.73
2018-05-13T15:59:46.437Z,93904.73
2018-05-13T16:02:14.699Z,93903.22
2018-05-13T16:04:42.954Z,93906.84
2018-05-13T16:07:11.515Z,93906.17
2018-05-13T16:09:40.538Z,93906.23
2018-05-13T16:12:08.829Z,93898.02
2018-05-13T16:14:37.848Z,93900.41
2018-05-13T16:17:06.115Z,93896.05
2018-05-13T16:19:34.378Z,93895.66
2018-05-13T16:22:02.643Z,93885.70
2018-05-13T16:24:30.920Z,93886.19
2018-05-13T16:26:59.959Z,93874.41
2018-05-13T16:29:28.212Z,93869.00
2018-05-13T16:31:56.475Z,93860.41
2018-05-13T16:34:25.488Z,93862.70
2018-05-13T16:36:53.756Z,93861.45
2018-05-13T16:39:22.771Z,93874.09
2018-05-13T16:41:51.040Z,93882.06
2018-05-13T16:44:19.290Z,93886.61
2018-05-13T16:46:47.564Z,93877.08
2018-05-13T16:49:15.819Z,93884.60
2018-05-13T16:51:44.086Z,93884.08
2018-05-13T16:54:12.334Z,93889.31
2018-05-13T16:56:42.602Z,93891.95
2018-05-13T16:59:10.884Z,93890.84
2018-05-13T17:01:39.126Z,93889.08
2018-05-13T17:04:08.148Z,93893.22
2018-05-13T17:06:36.410Z,93908.28
2018-05-13T17:09:04.672Z,93905.95
2018-05-13T17:11:33.692Z,93909.78
2018-05-13T17:14:01.958Z,93909.44
2018-05-13T17:16:30.983Z,93910.62
2018-05-13T17:18:59.267Z,93913.02
2018-05-13T17:21:27.535Z,93909.21
2018-05-13T17:23:55.794Z,93901.98
2018-05-13T17:26:24.812Z,93906.59
2018-05-13T17:28:53.079Z,93899.59
2018-05-13T17:31:22.092Z,93913.98
2018-05-13T17:33:50.359Z,93947.48
2018-05-13T17:36:18.615Z,93976.48
2018-05-13T17:38:48.780Z,93966.39
2018-05-13T17:41:17.134Z,93955.14
2018-05-13T17:43:45.316Z,93954.63
2018-05-13T17:46:14.331Z,93957.06
2018-05-13T17:48:42.592Z,93966.91
2018-05-13T17:51:11.616Z,93963.50
2018-05-13T17:53:39.908Z,93962.34
2018-05-13T17:56:08.147Z,93951.62
2018-05-13T17:58:37.185Z,93953.75
2018-05-13T18:01:05.437Z,93954.53
2018-05-13T18:03:34.467Z,93943.67
2018-05-13T18:06:02.732Z,93948.44
2018-05-13T18:08:31.011Z,93943.64
2018-05-13T18:10:59.272Z,93937.44
2018-05-13T18:13:28.315Z,93935.52
2018-05-13T18:15:56.572Z,93939.44
2018-05-13T18:18:24.835Z,93939.68
2018-05-13T18:20:53.105Z,93940.48
2018-05-13T18:23:22.135Z,93935.38
2018-05-13T18:25:50.400Z,93938.09
2018-05-13T18:28:18.675Z,93936.00
2018-05-13T18:30:46.939Z,93936.28
2018-05-13T18:33:15.973Z,93931.63
2018-05-13T18:35:44.239Z,93921.17
2018-05-13T18:38:12.503Z,93926.28
2018-05-13T18:40:41.526Z,93928.72
2018-05-13T18:43:09.791Z,93923.84
2018-05-13T18:45:38.047Z,93919.41
2018-05-13T18:48:06.327Z,93917.46
2018-05-13T18:50:34.613Z,93924.90
2018-05-13T18:53:02.869Z,93925.12
2018-05-13T18:55:31.144Z,93929.03
2018-05-13T18:57:59.400Z,93930.77
2018-05-13T19:00:27.671Z,93936.94
2018-05-13T19:02:55.927Z,93941.20
2018-05-13T19:05:24.973Z,93953.63
2018-05-13T19:07:53.231Z,93957.55
2018-05-13T19:10:21.483Z,93956.58
2018-05-13T19:12:50.535Z,93958.52
2018-05-13T19:15:18.789Z,93961.86
2018-05-13T19:17:47.054Z,93960.59
2018-05-13T19:20:15.334Z,93970.64
2018-05-13T19:22:43.606Z,93969.86
2018-05-13T19:25:12.638Z,93973.39
2018-05-13T19:27:40.890Z,93978.07
2018-05-13T19:30:09.922Z,93987.61
2018-05-13T19:32:38.185Z,93992.78
2018-05-13T19:35:06.762Z,93999.99
2018-05-13T19:37:35.779Z,94002.47
2018-05-13T19:40:04.036Z,94003.84
2018-05-13T19:42:32.307Z,94006.27
2018-05-13T19:45:01.338Z,94006.92
2018-05-13T19:47:29.587Z,94006.76
2018-05-13T19:49:58.614Z,94017.47
2018-05-13T19:52:26.876Z,94024.39
2018-05-13T19:54:55.157Z,94026.02
2018-05-13T19:57:23.406Z,94026.40
2018-05-13T19:59:51.688Z,94027.00
2018-05-13T20:02:19.944Z,94036.84
2018-05-13T20:04:48.215Z,94046.73
2018-05-13T20:07:16.464Z,94050.36
2018-05-13T20:09:44.802Z,94055.52
2018-05-13T20:12:13.762Z,94052.94
2018-05-13T20:14:42.318Z,94053.16
2018-05-13T20:17:11.330Z,94058.09
2018-05-13T20:19:39.604Z,94055.41
2018-05-13T20:22:07.864Z,94056.05
2018-05-13T20:24:36.892Z,94060.95
2018-05-13T20:27:05.159Z,94054.52
2018-05-13T20:29:34.183Z,94049.03
2018-05-13T20:32:02.459Z,94050.42
2018-05-13T20:34:30.736Z,94052.09
2018-05-13T20:36:59.843Z,94052.91
2018-05-13T20:39:28.116Z,94050.52
2018-05-13T20:41:56.379Z,94046.55
2018-05-13T20:44:24.682Z,94052.02
2018-05-13T20:46:53.391Z,94052.73
2018-05-13T20:49:21.645Z,94054.61
2018-05-13T20:51:49.911Z,94053.63
2018-05-13T20:54:18.292Z,94053.14
2018-05-13T20:56:46.487Z,94047.93
2018-05-13T20:59:14.736Z,94053.19
2018-05-13T21:01:43.775Z,94060.25
2018-05-13T21:04:12.036Z,94064.88
2018-05-13T21:06:40.308Z,94069.13
2018-05-13T21:09:09.338Z,94067.07
2018-05-13T21:11:37.582Z,94065.81
2018-05-13T21:14:06.611Z,94066.23
2018-05-13T21:16:34.878Z,94066.88
2018-05-13T21:19:03.171Z,94063.95
2018-05-13T21:21:31.440Z,94069.48
2018-05-13T21:23:59.699Z,94067.02
2018-05-13T21:26:28.727Z,94066.94
2018-05-13T21:28:56.987Z,94064.67
2018-05-13T21:31:25.260Z,94053.50
2018-05-13T21:33:54.287Z,94052.41
2018-05-13T21:36:22.547Z,94050.18
2018-05-13T21:38:51.868Z,94055.97
2018-05-13T21:41:20.127Z,94057.20
2018-05-13T21:43:49.143Z,94062.69
2018-05-13T21:46:17.406Z,94064.98
2018-05-13T21:48:45.666Z,94066.34
2018-05-13T21:51:13.936Z,94072.59
2018-05-13T21:53:42.198Z,94081.80
2018-05-13T21:56:10.479Z,94084.80
2018-05-13T21:58:38.736Z,94088.05
2018-05-13T22:01:07.680Z,94085.00
2018-05-13T22:03:36.091Z,94081.00
2018-05-13T22:06:04.350Z,94087.13
2018-05-13T22:08:32.600Z,94088.25
2018-05-13T22:11:00.868Z,94085.77
2018-05-13T22:13:29.125Z,94094.57
2018-05-13T22:15:57.397Z,94094.72
2018-05-13T22:18:25.652Z,94087.52
2018-05-13T22:20:53.916Z,94081.59
2018-05-13T22:23:22.188Z,94087.06
2018-05-13T22:25:50.535Z,94091.30
2018-05-13T22:28:18.719Z,94086.80
2018-05-13T22:30:46.977Z,94079.31
2018-05-13T22:33:15.246Z,94084.39
2018-05-13T22:35:44.267Z,94077.55
2018-05-13T22:38:12.530Z,94083.94
2018-05-13T22:40:41.581Z,94073.27
2018-05-13T22:43:09.835Z,94072.03
2018-05-13T22:45:38.095Z,94066.13
2018-05-13T22:48:06.350Z,94061.48
2018-05-13T22:50:34.630Z,94058.50
2018-05-13T22:53:02.923Z,94058.97
2018-05-13T22:55:31.959Z,94063.69
2018-05-13T22:58:00.239Z,94053.78
2018-05-13T23:00:28.512Z,94058.02
2018-05-13T23:02:56.774Z,94057.95
2018-05-13T23:05:25.941Z,94054.98
2018-05-13T23:07:54.076Z,94057.70
2018-05-13T23:10:22.342Z,94061.84
2018-05-13T23:12:50.615Z,94074.59
2018-05-13T23:15:18.869Z,94076.39
2018-05-13T23:17:47.131Z,94068.24
2018-05-13T23:20:15.393Z,94068.64
2018-05-13T23:22:43.667Z,94062.08
2018-05-13T23:25:11.947Z,94057.47
2018-05-13T23:27:40.207Z,94055.83
2018-05-13T23:30:08.472Z,94062.08
2018-05-13T23:32:37.503Z,94064.86
2018-05-13T23:35:05.766Z,94073.02
2018-05-13T23:37:34.136Z,94067.76
2018-05-13T23:40:03.162Z,94070.48
2018-05-13T23:42:31.524Z,94069.22
2018-05-13T23:44:59.795Z,94064.19
2018-05-13T23:47:28.822Z,94062.81
2018-05-13T23:49:57.085Z,94058.70
2018-05-13T23:52:25.367Z,94053.80
2018-05-13T23:54:53.618Z,94056.94
2018-05-13T23:57:21.887Z,94058.99
2018-05-13T23:59:50.152Z,94063.27
